Terminal Aerodrome Forecast
Issued by NWS

Home | Current Version | Previous Version | Text Only | Print | Product List | Glossary On
Versions: 1 2 3 4 5 6 7 8 9 10 11 12 13 14 15
000
FTUS43 KPAH 310500
TAFCGI
TAF
KCGI 310520Z 3106/0106 17005KT P6SM BKN012
      TEMPO 3106/3109 SCT012 BKN150
     FM311000 17003KT 5SM BR BKN008
     FM311500 22007KT P6SM BKN030
     FM312200 19006KT P6SM SCT040=

USA.gov is the U.S. government's official web portal to all federal, state and local government web resources and services.